createdAt,value
2023-01-22T00:01:09.563Z,17.73
2023-01-22T00:03:36.901Z,19.88
2023-01-22T00:06:04.383Z,19.08
2023-01-22T00:08:31.829Z,17.27
2023-01-22T00:10:58.599Z,17.15
2023-01-22T00:13:26.876Z,18.42
2023-01-22T00:15:54.414Z,17.45
2023-01-22T00:18:21.148Z,18.63
2023-01-22T00:20:53.024Z,17.58
2023-01-22T00:23:20.512Z,18.42
2023-01-22T00:25:47.286Z,17.42
2023-01-22T00:28:14.192Z,16.88
2023-01-22T00:30:40.890Z,19.10
2023-01-22T00:33:07.545Z,16.13
2023-01-22T00:35:35.454Z,17.63
2023-01-22T00:38:02.071Z,17.95
2023-01-22T00:40:28.717Z,17.58
2023-01-22T00:42:55.325Z,16.48
2023-01-22T00:45:21.936Z,17.20
2023-01-22T00:47:48.653Z,17.58
2023-01-22T00:50:15.530Z,16.60
2023-01-22T00:52:42.251Z,18.50
2023-01-22T00:55:09.240Z,17.42
2023-01-22T00:57:35.837Z,16.00
2023-01-22T01:00:02.550Z,16.40
2023-01-22T01:02:30.187Z,16.42
2023-01-22T01:04:56.878Z,14.35
2023-01-22T01:07:23.873Z,16.63
2023-01-22T01:09:50.776Z,16.27
2023-01-22T01:12:17.628Z,15.20
2023-01-22T01:14:44.242Z,14.95
2023-01-22T01:17:10.883Z,17.77
2023-01-22T01:19:37.598Z,14.63
2023-01-22T01:22:05.979Z,17.70
2023-01-22T01:24:32.548Z,17.77
2023-01-22T01:26:59.141Z,18.02
2023-01-22T01:29:25.768Z,15.52
2023-01-22T01:31:54.483Z,16.90
2023-01-22T01:34:21.215Z,14.98
2023-01-22T01:36:49.581Z,16.42
2023-01-22T01:39:17.334Z,15.80
2023-01-22T01:41:44.636Z,15.93
2023-01-22T01:44:19.351Z,16.40
2023-01-22T01:47:01.113Z,17.35
2023-01-22T01:49:38.630Z,16.50
2023-01-22T01:52:12.492Z,15.15
2023-01-22T01:54:42.946Z,17.15
2023-01-22T01:57:14.801Z,16.63
2023-01-22T01:59:42.890Z,18.50
2023-01-22T02:02:09.669Z,16.73
2023-01-22T02:04:36.312Z,16.25
2023-01-22T02:07:05.467Z,15.13
2023-01-22T02:09:33.961Z,15.65
2023-01-22T02:12:00.834Z,15.20
2023-01-22T02:14:33.021Z,16.17
2023-01-22T02:17:12.302Z,15.50
2023-01-22T02:19:40.822Z,16.65
2023-01-22T02:22:24.059Z,15.55
2023-01-22T02:24:50.924Z,13.63
2023-01-22T02:27:18.611Z,14.18
2023-01-22T02:29:46.741Z,14.63
2023-01-22T02:32:13.498Z,13.32
2023-01-22T02:34:40.485Z,12.70
2023-01-22T02:37:07.167Z,15.40
2023-01-22T02:39:33.903Z,13.65
2023-01-22T02:42:05.914Z,12.63
2023-01-22T02:44:32.756Z,13.90
2023-01-22T02:46:59.711Z,11.65
2023-01-22T02:49:27.085Z,11.82
2023-01-22T02:51:53.946Z,15.25
2023-01-22T02:54:21.705Z,14.07
2023-01-22T02:56:48.673Z,13.77
2023-01-22T02:59:15.908Z,14.55
2023-01-22T03:01:42.692Z,16.05
2023-01-22T03:04:12.146Z,13.30
2023-01-22T03:06:45.070Z,15.40
2023-01-22T03:09:15.271Z,15.52
2023-01-22T03:11:45.171Z,14.18
2023-01-22T03:14:34.949Z,15.15
2023-01-22T03:17:21.361Z,16.30
2023-01-22T03:20:06.706Z,14.75
2023-01-22T03:22:33.471Z,14.98
2023-01-22T03:25:01.295Z,10.57
2023-01-22T03:27:31.052Z,13.38
2023-01-22T03:29:58.307Z,14.20
2023-01-22T03:32:25.996Z,12.13
2023-01-22T03:34:53.699Z,14.07
2023-01-22T03:37:21.788Z,13.93
2023-01-22T03:39:51.620Z,14.27
2023-01-22T03:42:25.515Z,15.05
2023-01-22T03:44:52.087Z,13.57
2023-01-22T03:47:18.718Z,14.07
2023-01-22T03:49:45.368Z,13.52
2023-01-22T03:52:12.024Z,13.35
2023-01-22T03:54:39.957Z,13.75
2023-01-22T03:57:07.768Z,14.02
2023-01-22T03:59:37.614Z,13.65
2023-01-22T04:02:04.322Z,13.23
2023-01-22T04:04:35.277Z,14.18
2023-01-22T04:07:02.329Z,12.43
2023-01-22T04:09:28.955Z,12.63
2023-01-22T04:11:57.233Z,12.90
2023-01-22T04:14:23.829Z,13.20
2023-01-22T04:16:56.425Z,12.88
2023-01-22T04:20:01.363Z,13.77
2023-01-22T04:22:42.938Z,13.93
2023-01-22T04:25:11.592Z,12.77
2023-01-22T04:27:38.512Z,14.02
2023-01-22T04:30:06.899Z,14.73
2023-01-22T04:32:34.429Z,12.57
2023-01-22T04:35:17.528Z,13.73
2023-01-22T04:37:49.688Z,13.60
2023-01-22T04:40:17.306Z,12.65
2023-01-22T04:42:45.385Z,12.43
2023-01-22T04:45:12.446Z,13.32
2023-01-22T04:47:44.501Z,11.50
2023-01-22T04:50:22.508Z,10.27
2023-01-22T04:52:54.037Z,13.18
2023-01-22T04:55:21.553Z,13.73
2023-01-22T04:58:02.368Z,12.82
2023-01-22T05:00:30.765Z,11.82
2023-01-22T05:03:00.629Z,12.85
2023-01-22T05:05:29.613Z,13.07
2023-01-22T05:07:57.513Z,12.18
2023-01-22T05:10:24.249Z,13.35
2023-01-22T05:12:51.629Z,13.65
2023-01-22T05:15:24.356Z,13.18
2023-01-22T05:17:53.654Z,13.03
2023-01-22T05:20:21.583Z,12.98
2023-01-22T05:22:48.989Z,13.82
2023-01-22T05:25:18.105Z,13.60
2023-01-22T05:27:45.631Z,14.07
2023-01-22T05:30:17.465Z,12.00
2023-01-22T05:32:58.088Z,12.80
2023-01-22T05:35:25.765Z,12.00
2023-01-22T05:37:52.455Z,13.15
2023-01-22T05:40:20.490Z,13.35
2023-01-22T05:42:47.324Z,13.02
2023-01-22T05:45:14.381Z,12.75
2023-01-22T05:48:07.223Z,14.77
2023-01-22T05:53:11.090Z,12.65
2023-01-22T05:55:37.902Z,14.00
2023-01-22T05:58:06.420Z,13.32
2023-01-22T06:00:34.437Z,13.40
2023-01-22T06:03:04.113Z,13.98
2023-01-22T06:05:40.728Z,14.07
2023-01-22T06:08:08.201Z,12.38
2023-01-22T06:10:47.946Z,13.75
2023-01-22T06:13:14.566Z,14.23
2023-01-22T06:15:45.814Z,13.23
2023-01-22T06:18:27.264Z,12.20
2023-01-22T06:21:03.730Z,13.60
2023-01-22T06:23:30.776Z,12.25
2023-01-22T06:26:01.375Z,14.10
2023-01-22T06:28:29.629Z,13.45
2023-01-22T06:31:05.327Z,13.07
2023-01-22T06:36:01.850Z,11.95
2023-01-22T06:38:28.568Z,14.05
2023-01-22T06:40:59.669Z,14.13
2023-01-22T06:43:28.458Z,14.82
2023-01-22T06:45:55.899Z,13.98
2023-01-22T06:48:39.003Z,15.70
2023-01-22T06:51:05.765Z,13.95
2023-01-22T06:53:32.426Z,11.57
2023-01-22T06:56:00.423Z,13.25
2023-01-22T06:58:29.506Z,12.55
2023-01-22T07:01:04.884Z,12.13
2023-01-22T07:03:31.750Z,12.75
2023-01-22T07:06:01.147Z,12.10
2023-01-22T07:08:29.913Z,12.13
2023-01-22T07:10:56.643Z,10.60
2023-01-22T07:13:23.264Z,11.38
2023-01-22T07:15:49.929Z,11.55
2023-01-22T07:18:19.889Z,12.18
2023-01-22T07:20:49.906Z,12.25
2023-01-22T07:23:16.513Z,11.70
2023-01-22T07:25:44.648Z,11.65
2023-01-22T07:28:14.908Z,10.80
2023-01-22T07:30:44.204Z,13.23
2023-01-22T07:33:12.005Z,13.32
2023-01-22T07:35:39.895Z,12.15
2023-01-22T07:38:07.305Z,12.55
2023-01-22T07:40:34.004Z,11.75
2023-01-22T07:43:06.343Z,12.18
2023-01-22T07:45:34.662Z,13.48
2023-01-22T07:48:01.345Z,12.68
2023-01-22T07:50:31.505Z,11.60
2023-01-22T07:53:00.537Z,12.30
2023-01-22T07:55:27.514Z,11.98
2023-01-22T07:58:03.711Z,12.20
2023-01-22T08:00:31.578Z,11.32
2023-01-22T08:02:58.227Z,11.15
2023-01-22T08:05:25.223Z,10.77
2023-01-22T08:07:51.915Z,11.23
2023-01-22T08:10:20.089Z,11.93
2023-01-22T08:12:47.355Z,11.70
2023-01-22T08:15:15.124Z,11.35
2023-01-22T08:17:42.231Z,10.63
2023-01-22T08:20:10.397Z,10.73
2023-01-22T08:22:37.189Z,11.23
2023-01-22T08:25:04.213Z,12.70
2023-01-22T08:27:30.816Z,11.93
2023-01-22T08:29:57.465Z,12.38
2023-01-22T08:32:24.191Z,10.45
2023-01-22T08:34:54.102Z,12.35
2023-01-22T08:37:22.905Z,11.75
2023-01-22T08:39:49.983Z,9.90
2023-01-22T08:42:17.129Z,9.18
2023-01-22T08:44:43.878Z,11.60
2023-01-22T08:47:11.419Z,9.48
2023-01-22T08:49:38.117Z,10.60
2023-01-22T08:52:05.340Z,10.98
2023-01-22T08:54:31.968Z,11.68
2023-01-22T08:56:58.704Z,10.75
2023-01-22T08:59:25.526Z,10.43
2023-01-22T09:01:52.173Z,9.65
2023-01-22T09:04:19.848Z,10.88
2023-01-22T09:06:46.582Z,11.15
2023-01-22T09:09:13.175Z,10.77
2023-01-22T09:11:39.833Z,9.90
2023-01-22T09:14:08.400Z,10.77
2023-01-22T09:16:36.079Z,11.13
2023-01-22T09:19:04.995Z,10.27
2023-01-22T09:21:33.799Z,10.55
2023-01-22T09:24:00.875Z,11.10
2023-01-22T09:26:27.632Z,12.07
2023-01-22T09:28:54.320Z,12.30
2023-01-22T09:31:21.112Z,12.15
2023-01-22T09:33:47.800Z,10.43
2023-01-22T09:36:16.106Z,10.80
2023-01-22T09:38:43.535Z,11.15
2023-01-22T09:41:37.640Z,9.80
2023-01-22T09:44:23.981Z,12.32
2023-01-22T09:49:38.031Z,10.85
2023-01-22T09:52:06.274Z,9.07
2023-01-22T09:54:33.224Z,11.63
2023-01-22T09:57:04.832Z,12.00
2023-01-22T09:59:52.353Z,11.48
2023-01-22T10:02:42.473Z,11.88
2023-01-22T10:05:30.433Z,12.40
2023-01-22T10:08:27.647Z,10.57
2023-01-22T10:10:54.311Z,12.30
2023-01-22T10:13:41.616Z,11.68
2023-01-22T10:16:09.840Z,11.50
2023-01-22T10:19:02.763Z,11.57
2023-01-22T10:21:32.434Z,11.27
2023-01-22T10:24:01.856Z,12.95
2023-01-22T10:26:37.507Z,11.25
2023-01-22T10:29:34.587Z,12.82
2023-01-22T10:32:40.267Z,12.07
2023-01-22T10:35:13.177Z,12.30
2023-01-22T10:37:52.841Z,11.73
2023-01-22T10:40:40.978Z,13.00
2023-01-22T10:43:17.765Z,12.70
2023-01-22T10:45:59.506Z,12.20
2023-01-22T10:48:26.650Z,12.52
2023-01-22T10:51:27.340Z,12.35
2023-01-22T10:53:57.471Z,12.93
2023-01-22T10:56:40.284Z,11.50
2023-01-22T10:59:29.745Z,13.30
2023-01-22T11:02:11.025Z,11.45
2023-01-22T11:04:37.870Z,13.10
2023-01-22T11:07:32.677Z,12.45
2023-01-22T11:10:27.281Z,12.95
2023-01-22T11:13:10.623Z,12.75
2023-01-22T11:15:40.515Z,13.07
2023-01-22T11:18:07.852Z,14.55
2023-01-22T11:20:56.087Z,14.60
2023-01-22T11:24:11.696Z,12.80
2023-01-22T11:27:22.404Z,12.25
2023-01-22T11:30:22.690Z,13.40
2023-01-22T11:33:17.066Z,13.88
2023-01-22T11:36:21.896Z,12.65
2023-01-22T11:39:26.785Z,14.20
2023-01-22T11:42:05.273Z,14.15
2023-01-22T11:45:25.532Z,13.25
2023-01-22T11:48:18.918Z,14.13
2023-01-22T11:50:57.303Z,13.80
2023-01-22T11:53:41.907Z,15.23
2023-01-22T11:56:39.287Z,13.65
2023-01-22T11:59:17.658Z,14.25
2023-01-22T12:02:02.642Z,13.82
2023-01-22T12:05:11.466Z,12.88
2023-01-22T12:08:23.725Z,14.35
2023-01-22T12:11:12.574Z,11.75
2023-01-22T12:14:01.546Z,14.55
2023-01-22T12:16:44.538Z,13.77
2023-01-22T12:19:35.917Z,12.48
2023-01-22T12:22:44.162Z,15.02
2023-01-22T12:25:24.128Z,13.77
2023-01-22T12:28:15.100Z,15.40
2023-01-22T12:31:00.060Z,13.55
2023-01-22T12:33:31.072Z,15.65
2023-01-22T12:36:02.462Z,13.98
2023-01-22T12:39:08.477Z,13.82
2023-01-22T12:41:59.391Z,15.05
2023-01-22T12:44:37.625Z,12.70
2023-01-22T12:47:24.665Z,13.85
2023-01-22T12:49:53.170Z,14.63
2023-01-22T12:52:32.082Z,14.68
2023-01-22T12:55:00.113Z,14.75
2023-01-22T12:57:39.680Z,13.20
2023-01-22T13:00:30.539Z,15.05
2023-01-22T13:02:58.163Z,14.27
2023-01-22T13:05:30.942Z,14.02
2023-01-22T13:08:16.491Z,13.52
2023-01-22T13:10:59.181Z,13.65
2023-01-22T13:13:33.994Z,13.48
2023-01-22T13:16:05.031Z,13.20
2023-01-22T13:18:41.383Z,13.15
2023-01-22T13:21:10.889Z,13.63
2023-01-22T13:23:43.510Z,15.15
2023-01-22T13:26:27.065Z,15.18
2023-01-22T13:28:55.572Z,15.18
2023-01-22T13:31:22.756Z,14.38
2023-01-22T13:34:08.784Z,13.93
2023-01-22T13:36:45.236Z,13.48
2023-01-22T13:39:19.994Z,12.55
2023-01-22T13:41:51.309Z,12.75
2023-01-22T13:44:36.099Z,13.30
2023-01-22T13:47:03.368Z,13.95
2023-01-22T13:49:33.279Z,13.60
2023-01-22T13:52:07.618Z,13.25
2023-01-22T13:54:48.307Z,12.90
2023-01-22T13:57:20.067Z,12.63
2023-01-22T13:59:59.423Z,12.90
2023-01-22T14:02:36.924Z,13.23
2023-01-22T14:05:04.167Z,14.57
2023-01-22T14:07:36.420Z,13.57
2023-01-22T14:10:12.377Z,14.38
2023-01-22T14:15:19.586Z,13.07
2023-01-22T14:17:47.575Z,13.55
2023-01-22T14:20:16.026Z,13.50
2023-01-22T14:22:42.789Z,13.20
2023-01-22T14:25:10.187Z,13.25
2023-01-22T14:27:48.885Z,13.82
2023-01-22T14:30:20.826Z,14.10
2023-01-22T14:32:47.563Z,13.40
2023-01-22T14:35:23.533Z,13.43
2023-01-22T14:40:19.877Z,13.77
2023-01-22T14:42:47.506Z,14.32
2023-01-22T14:45:16.814Z,14.18
2023-01-22T14:47:43.642Z,13.90
2023-01-22T14:50:11.446Z,13.55
2023-01-22T14:52:38.354Z,13.50
2023-01-22T14:55:06.211Z,14.10
2023-01-22T14:57:32.848Z,14.82
2023-01-22T15:00:02.493Z,13.77
2023-01-22T15:02:29.342Z,14.45
2023-01-22T15:04:55.955Z,11.27
2023-01-22T15:07:22.715Z,13.75
2023-01-22T15:09:49.329Z,14.98
2023-01-22T15:12:15.949Z,15.40
2023-01-22T15:14:42.643Z,17.65
2023-01-22T15:17:09.297Z,13.38
2023-01-22T15:19:41.227Z,12.77
2023-01-22T15:22:09.050Z,15.60
2023-01-22T15:24:35.823Z,14.32
2023-01-22T15:27:02.537Z,14.13
2023-01-22T15:29:29.156Z,15.93
2023-01-22T15:31:55.826Z,15.30
2023-01-22T15:34:23.751Z,15.68
2023-01-22T15:36:50.607Z,15.70
2023-01-22T15:39:17.238Z,14.52
2023-01-22T15:41:44.403Z,17.08
2023-01-22T15:44:13.599Z,15.77
2023-01-22T15:46:42.763Z,14.98
2023-01-22T15:49:12.093Z,15.77
2023-01-22T15:51:40.831Z,16.15
2023-01-22T15:54:12.968Z,16.33
2023-01-22T15:56:39.888Z,16.52
2023-01-22T15:59:07.343Z,15.80
2023-01-22T16:01:34.587Z,18.83
2023-01-22T16:04:02.909Z,15.80
2023-01-22T16:06:33.145Z,16.90
2023-01-22T16:09:02.812Z,16.45
2023-01-22T16:11:30.192Z,17.08
2023-01-22T16:13:58.982Z,16.63
2023-01-22T16:16:36.672Z,17.17
2023-01-22T16:19:06.740Z,18.17
2023-01-22T16:21:33.820Z,17.73
2023-01-22T16:24:01.820Z,17.63
2023-01-22T16:26:32.017Z,18.10
2023-01-22T16:29:01.634Z,15.80
2023-01-22T16:31:32.484Z,16.75
2023-01-22T16:34:07.303Z,15.45
2023-01-22T16:36:34.072Z,15.65
2023-01-22T16:39:01.069Z,16.58
2023-01-22T16:41:31.156Z,16.65
2023-01-22T16:44:01.759Z,16.70
2023-01-22T16:46:32.067Z,17.95
2023-01-22T16:49:06.368Z,17.40
2023-01-22T16:51:40.224Z,17.67
2023-01-22T16:54:08.135Z,17.75
2023-01-22T16:56:35.224Z,17.10
2023-01-22T16:59:02.169Z,16.98
2023-01-22T17:01:30.566Z,17.52
2023-01-22T17:03:57.219Z,18.23
2023-01-22T17:06:30.551Z,17.42
2023-01-22T17:08:57.545Z,18.70
2023-01-22T17:11:24.254Z,16.42
2023-01-22T17:13:50.950Z,16.98
2023-01-22T17:16:18.406Z,17.75
2023-01-22T17:18:45.883Z,18.70
2023-01-22T17:21:17.977Z,18.65
2023-01-22T17:23:44.873Z,18.23
2023-01-22T17:26:14.364Z,17.88
2023-01-22T17:28:42.042Z,17.77
2023-01-22T17:31:12.536Z,16.40
2023-01-22T17:33:39.398Z,18.45
2023-01-22T17:36:07.145Z,18.25
2023-01-22T17:38:38.394Z,18.75
2023-01-22T17:41:18.119Z,17.92
2023-01-22T17:43:47.421Z,17.88
2023-01-22T17:46:17.900Z,17.35
2023-01-22T17:48:46.283Z,16.70
2023-01-22T17:51:19.354Z,18.23
2023-01-22T17:53:47.825Z,19.05
2023-01-22T17:56:34.770Z,21.73
2023-01-22T17:59:05.054Z,17.67
2023-01-22T18:01:34.983Z,19.90
2023-01-22T18:04:06.091Z,18.23
2023-01-22T18:06:33.682Z,17.88
2023-01-22T18:09:00.770Z,18.75
2023-01-22T18:11:29.520Z,21.35
2023-01-22T18:14:06.251Z,19.65
2023-01-22T18:16:36.326Z,18.38
2023-01-22T18:19:07.011Z,22.67
2023-01-22T18:21:35.857Z,22.88
2023-01-22T18:24:04.763Z,19.40
2023-01-22T18:26:31.755Z,26.15
2023-01-22T18:28:59.523Z,21.20
2023-01-22T18:31:28.988Z,20.23
2023-01-22T18:34:02.542Z,21.55
2023-01-22T18:36:32.854Z,21.02
2023-01-22T18:39:02.902Z,21.55
2023-01-22T18:41:30.748Z,20.52
2023-01-22T18:44:01.821Z,22.65
2023-01-22T18:46:36.871Z,18.42
2023-01-22T18:49:08.753Z,19.25
2023-01-22T18:51:35.546Z,21.92
2023-01-22T18:54:07.219Z,21.55
2023-01-22T18:56:34.967Z,20.42
2023-01-22T18:59:01.639Z,20.70
2023-01-22T19:01:32.330Z,21.27
2023-01-22T19:04:08.689Z,21.17
2023-01-22T19:06:38.014Z,19.58
2023-01-22T19:09:12.379Z,20.27
2023-01-22T19:11:42.845Z,19.90
2023-01-22T19:14:13.822Z,19.05
2023-01-22T19:16:42.943Z,20.25
2023-01-22T19:19:13.490Z,19.73
2023-01-22T19:21:49.481Z,22.33
2023-01-22T19:26:46.575Z,20.02
2023-01-22T19:29:19.479Z,22.10
2023-01-22T19:31:51.912Z,20.90
2023-01-22T19:34:24.723Z,20.27
2023-01-22T19:36:57.870Z,20.38
2023-01-22T19:39:28.126Z,20.65
2023-01-22T19:41:55.164Z,21.45
2023-01-22T19:44:22.681Z,20.30
2023-01-22T19:46:49.422Z,21.83
2023-01-22T19:49:16.097Z,19.90
2023-01-22T19:51:43.025Z,20.33
2023-01-22T19:54:10.228Z,20.27
2023-01-22T19:56:38.495Z,19.73
2023-01-22T19:59:11.726Z,18.00
2023-01-22T20:01:39.097Z,19.67
2023-01-22T20:04:12.477Z,17.77
2023-01-22T20:06:39.767Z,18.70
2023-01-22T20:09:06.503Z,19.02
2023-01-22T20:11:33.337Z,17.98
2023-01-22T20:14:00.121Z,16.50
2023-01-22T20:16:29.827Z,19.90
2023-01-22T20:18:58.354Z,21.10
2023-01-22T20:21:28.465Z,20.52
2023-01-22T20:23:55.165Z,18.73
2023-01-22T20:26:22.730Z,18.92
2023-01-22T20:28:50.362Z,18.58
2023-01-22T20:31:23.004Z,19.42
2023-01-22T20:33:52.521Z,20.27
2023-01-22T20:36:21.439Z,19.13
2023-01-22T20:38:52.540Z,19.98
2023-01-22T20:41:20.097Z,19.85
2023-01-22T20:43:46.912Z,20.60
2023-01-22T20:46:23.801Z,19.55
2023-01-22T20:48:51.673Z,21.35
2023-01-22T20:51:22.201Z,18.45
2023-01-22T20:53:51.240Z,20.08
2023-01-22T20:56:22.622Z,20.98
2023-01-22T20:58:57.071Z,20.05
2023-01-22T21:01:24.763Z,20.35
2023-01-22T21:03:52.146Z,21.35
2023-01-22T21:06:19.953Z,20.35
2023-01-22T21:08:56.136Z,19.10
2023-01-22T21:11:24.498Z,19.38
2023-01-22T21:13:53.214Z,20.98
2023-01-22T21:16:29.589Z,20.08
2023-01-22T21:19:07.353Z,20.52
2023-01-22T21:21:35.606Z,19.23
2023-01-22T21:24:03.340Z,20.27
2023-01-22T21:26:32.751Z,19.20
2023-01-22T21:29:03.472Z,21.05
2023-01-22T21:31:31.149Z,18.33
2023-01-22T21:34:03.917Z,18.70
2023-01-22T21:36:34.433Z,18.52
2023-01-22T21:39:01.214Z,17.58
2023-01-22T21:41:28.461Z,17.98
2023-01-22T21:44:13.999Z,17.33
2023-01-22T21:46:43.838Z,17.02
2023-01-22T21:49:18.073Z,16.23
2023-01-22T21:51:49.760Z,16.58
2023-01-22T21:54:26.281Z,16.33
2023-01-22T21:56:54.295Z,15.27
2023-01-22T21:59:21.236Z,15.82
2023-01-22T22:01:50.328Z,15.15
2023-01-22T22:04:17.876Z,15.55
2023-01-22T22:06:45.016Z,18.67
2023-01-22T22:09:18.158Z,16.75
2023-01-22T22:11:45.765Z,18.17
2023-01-22T22:14:20.251Z,17.20
2023-01-22T22:16:48.376Z,16.23
2023-01-22T22:19:16.464Z,17.67
2023-01-22T22:21:43.281Z,16.52
2023-01-22T22:24:10.902Z,18.05
2023-01-22T22:26:38.321Z,17.67
2023-01-22T22:29:06.527Z,17.25
2023-01-22T22:31:33.301Z,15.82
2023-01-22T22:34:00.147Z,16.73
2023-01-22T22:36:29.645Z,16.05
2023-01-22T22:38:58.925Z,14.13
2023-01-22T22:41:29.473Z,16.30
2023-01-22T22:43:56.773Z,14.73
2023-01-22T22:46:23.359Z,15.27
2023-01-22T22:48:50.731Z,14.43
2023-01-22T22:51:24.698Z,15.57
2023-01-22T22:53:54.889Z,15.82
2023-01-22T22:56:22.230Z,16.30
2023-01-22T22:58:49.103Z,15.35
2023-01-22T23:01:21.220Z,15.30
2023-01-22T23:03:48.270Z,17.75
2023-01-22T23:06:21.859Z,17.10
2023-01-22T23:08:54.697Z,16.85
2023-01-22T23:11:28.720Z,16.23
2023-01-22T23:14:01.331Z,17.40
2023-01-22T23:16:38.229Z,16.75
2023-01-22T23:19:14.707Z,16.75
2023-01-22T23:21:41.703Z,17.13
2023-01-22T23:24:13.925Z,15.57
2023-01-22T23:26:42.887Z,15.95
2023-01-22T23:29:13.614Z,15.65
2023-01-22T23:31:40.748Z,15.88
2023-01-22T23:34:14.345Z,16.75
2023-01-22T23:36:44.312Z,15.90
2023-01-22T23:39:13.959Z,14.00
2023-01-22T23:41:41.924Z,14.40
2023-01-22T23:44:09.105Z,15.05
2023-01-22T23:46:36.444Z,15.02
2023-01-22T23:49:04.352Z,13.57
2023-01-22T23:51:31.400Z,13.45
2023-01-22T23:53:58.345Z,14.43
2023-01-22T23:56:31.459Z,14.63
2023-01-22T23:58:58.938Z,15.63
